Aviation Digital Data Service (ADDS)

Output produced by METARs form (0025 UTC 23 June 2018)
found at http://aviationweather.gov/adds/metars/
 
KASD 222322Z 2300/2324 22008KT P6SM FEW070 FEW250 
     FM230700 21005KT P6SM FEW050 SCT060 
     FM231000 22004KT P6SM BKN010 BKN035 
     FM231300 22004KT P6SM SCT020 BKN030 
     FM231600 22008KT P6SM SCT025 BKN050 
     FM231700 21007KT P6SM FEW035 SCT070